| Date | Time | Temp. (oF) | Dew Point (oF) | Rel. Hum. (%) | Press. (in.) | Wind Dir. | Wind Speed (mph) | Hourly Rainfall (in.) |
|
|---|---|---|---|---|---|---|---|---|---|
| 1 | 10/30 | 00:00 | 42 | 36 | 80 | 30.22 | W | 2 | 0.00 |
| 2 | 10/29 | 23:00 | 41 | 34 | 79 | 30.22 | WSW | 3 | 0.00 |
| 3 | 10/29 | 22:00 | 40 | 34 | 80 | 30.21 | SW | 1 | 0.00 |
| 4 | 10/29 | 21:00 | 43 | 33 | 70 | 30.21 | SSW | 0 | 0.00 |
| 5 | 10/29 | 20:00 | 46 | 34 | 63 | 30.21 | NW | 3 | 0.00 |
| 6 | 10/29 | 19:00 | 46 | 34 | 64 | 30.21 | NW | 2 | 0.00 |
| 7 | 10/29 | 18:00 | 48 | 33 | 57 | 30.20 | WSW | 4 | 0.00 |
| 8 | 10/29 | 17:00 | 50 | 32 | 50 | 30.20 | NW | 13 | 0.00 |
| 9 | 10/29 | 16:00 | 50 | 32 | 51 | 30.20 | SW | 6 | 0.00 |
| 10 | 10/29 | 15:00 | 49 | 32 | 52 | 30.22 | WNW | 10 | 0.00 |
| 11 | 10/29 | 14:00 | 47 | 31 | 54 | 30.25 | WNW | 12 | 0.00 |
| 12 | 10/29 | 13:00 | 46 | 31 | 57 | 30.28 | N | 14 | 0.00 |
| 13 | 10/29 | 12:00 | 46 | 34 | 65 | 30.30 | NW | 7 | 0.00 |
| 14 | 10/29 | 11:00 | 45 | 38 | 79 | 30.31 | NW | 10 | 0.00 |
| 15 | 10/29 | 10:00 | 41 | 37 | 86 | 30.33 | NW | 7 | 0.00 |
| 16 | 10/29 | 09:00 | 39 | 39 | 100 | 30.32 | NW | 3 | 0.00 |
| 17 | 10/29 | 08:00 | 36 | 36 | 100 | 30.30 | NW | 2 | 0.00 |
| 18 | 10/29 | 07:00 | 34 | 33 | 100 | 30.29 | SW | 0 | 0.00 |
| 19 | 10/29 | 06:00 | 35 | 35 | 100 | 30.28 | SW | 0 | 0.00 |
| 20 | 10/29 | 05:00 | 35 | 35 | 100 | 30.28 | WSW | 0 | 0.00 |
| 21 | 10/29 | 04:00 | 34 | 33 | 100 | 30.28 | NE | 0 | 0.00 |
| 22 | 10/29 | 03:00 | 34 | 33 | 100 | 30.29 | WSW | 0 | 0.00 |
| 23 | 10/29 | 02:00 | 34 | 33 | 98 | 30.30 | WSW | 0 | 0.00 |
| 24 | 10/29 | 01:00 | 33 | 31 | 96 | 30.30 | WSW | 0 | 0.00 |